Time;durP1;ratioP1;P1;durP2;ratioP2;P2;SDS_P1;SDS_P2;PMS_P1;PMS_P2;Temp;Humidity;BMP_temperature;BMP_pressure;BME280_temperature;BME280_humidity;BME280_pressure;Samples;Min_cycle;Max_cycle;Signal;HPM_P1;HPM_P2
2024/01/25 00:00:26;;;;;;;;;;;;;;;9.64;51.54;100698.84;5346691;32;34575;-77
2024/01/25 00:03:28;;;;;;;;;;;;;;;9.84;50.74;100698.25;5353449;32;35207;-70
2024/01/25 00:06:31;;;;;;;;;;;;;;;9.21;52.37;100708.00;5371672;32;35355;-75
2024/01/25 00:09:33;;;;;;;;;;;;;;;9.83;50.88;100701.78;5367609;32;34544;-68
2024/01/25 00:12:35;;;;;;;;;;;;;;;9.58;51.52;100689.41;5375028;32;34466;-67
2024/01/25 00:15:37;;;;;;;;;;;;;;;9.60;51.29;100684.13;5355784;32;35349;-75
2024/01/25 00:18:40;;;;;;;;;;;;;;;9.43;51.48;100690.72;5371134;32;36009;-69
2024/01/25 00:21:43;;;;;;;;;;;;;;;9.37;51.84;100692.66;5356863;32;34305;-77
2024/01/25 00:24:45;;;;;;;;;;;;;;;9.43;51.73;100690.72;5367070;32;34736;-75
2024/01/25 00:27:47;;;;;;;;;;;;;;;9.70;51.25;100703.91;5356901;32;34850;-69
2024/01/25 00:30:51;;;;;;;;;;;;;;;9.35;51.81;100692.72;5368696;32;34727;-77
2024/01/25 00:33:53;;;;;;;;;;;;;;;9.45;51.66;100703.78;5358452;32;34760;-70
2024/01/25 00:36:56;;;;;;;;;;;;;;;9.44;52.02;100697.69;5366881;32;34439;-69
2024/01/25 00:39:58;;;;;;;;;;;;;;;9.64;51.38;100699.72;5370965;32;34892;-70
2024/01/25 00:43:00;;;;;;;;;;;;;;;9.21;52.87;100708.84;5351038;32;35630;-68
2024/01/25 00:46:03;;;;;;;;;;;;;;;9.35;52.27;100700.59;5354024;32;36657;-76
2024/01/25 00:49:05;;;;;;;;;;;;;;;9.62;51.50;100711.16;5374332;32;35044;-68
2024/01/25 00:52:08;;;;;;;;;;;;;;;9.04;52.49;100716.31;5368827;32;34437;-77
2024/01/25 00:55:10;;;;;;;;;;;;;;;9.29;51.68;100713.88;5372382;32;34854;-69
2024/01/25 00:58:13;;;;;;;;;;;;;;;9.09;52.50;100705.72;5367792;32;35387;-76
2024/01/25 01:01:15;;;;;;;;;;;;;;;9.67;50.93;100704.87;5369312;32;35028;-77
2024/01/25 01:04:17;;;;;;;;;;;;;;;9.47;50.84;100708.09;5371163;32;34731;-68
2024/01/25 01:07:20;;;;;;;;;;;;;;;9.29;51.60;100699.91;5362499;32;34515;-69
2024/01/25 01:10:22;;;;;;;;;;;;;;;9.36;51.11;100688.31;5372102;32;35045;-77
2024/01/25 01:13:25;;;;;;;;;;;;;;;9.27;51.17;100675.47;5367392;32;35221;-68
2024/01/25 01:16:27;;;;;;;;;;;;;;;9.85;50.19;100685.06;5357785;32;34654;-78
2024/01/25 01:19:29;;;;;;;;;;;;;;;9.36;50.84;100681.31;5354785;32;34629;-68
2024/01/25 01:22:31;;;;;;;;;;;;;;;9.22;51.25;100680.87;5368104;32;35189;-76
2024/01/25 01:25:34;;;;;;;;;;;;;;;9.16;51.09;100687.13;5369930;32;34375;-77
2024/01/25 01:28:36;;;;;;;;;;;;;;;9.25;51.00;100661.53;5367646;32;35053;-77
2024/01/25 01:31:38;;;;;;;;;;;;;;;9.27;50.79;100646.59;5358177;32;34876;-69
2024/01/25 01:34:40;;;;;;;;;;;;;;;9.60;50.63;100647.37;5368029;32;35415;-67
2024/01/25 01:37:43;;;;;;;;;;;;;;;9.52;50.76;100662.47;5372736;32;34870;-75
2024/01/25 01:40:46;;;;;;;;;;;;;;;9.55;50.83;100668.50;5368962;32;35244;-68
2024/01/25 01:43:51;;;;;;;;;;;;;;;9.57;50.87;100676.31;5359558;32;34814;-68
2024/01/25 01:47:11;;;;;;;;;;;;;;;9.22;51.45;100670.38;5364301;32;35566;-68
2024/01/25 01:50:30;;;;;;;;;;;;;;;9.31;51.45;100671.84;5370720;32;35705;-69
2024/01/25 01:53:35;;;;;;;;;;;;;;;8.87;52.67;100668.72;5377119;32;34688;-76
2024/01/25 01:56:39;;;;;;;;;;;;;;;9.28;51.54;100664.09;5359445;32;36427;-76
2024/01/25 01:59:42;;;;;;;;;;;;;;;9.26;51.60;100671.13;5374721;32;36145;-77
2024/01/25 02:02:44;;;;;;;;;;;;;;;9.25;51.37;100666.78;5337650;32;847943;-75
2024/01/25 02:05:47;;;;;;;;;;;;;;;9.40;50.88;100653.22;5359240;32;34848;-76
2024/01/25 02:08:50;;;;;;;;;;;;;;;9.15;51.13;100643.47;5376756;32;36045;-77
2024/01/25 02:12:02;;;;;;;;;;;;;;;9.03;51.41;100650.81;5364833;32;35085;-77
2024/01/25 02:15:04;;;;;;;;;;;;;;;9.31;50.14;100645.62;5375827;32;34755;-76
2024/01/25 02:18:07;;;;;;;;;;;;;;;9.42;50.37;100649.66;5375318;32;34891;-77
2024/01/25 02:21:09;;;;;;;;;;;;;;;9.50;49.81;100638.91;5373874;32;35303;-76
2024/01/25 02:24:11;;;;;;;;;;;;;;;9.42;49.58;100643.56;5375506;32;34855;-76
2024/01/25 02:27:13;;;;;;;;;;;;;;;9.36;50.05;100648.97;5371231;32;35338;-76
2024/01/25 02:30:15;;;;;;;;;;;;;;;9.43;49.85;100640.03;5378862;32;34760;-68
2024/01/25 02:33:18;;;;;;;;;;;;;;;9.49;49.60;100647.69;5358364;32;34325;-76
2024/01/25 02:36:22;;;;;;;;;;;;;;;9.43;49.84;100640.87;5379992;32;34916;-75
2024/01/25 02:39:24;;;;;;;;;;;;;;;9.25;50.31;100646.66;5374572;32;35283;-76
2024/01/25 02:42:26;;;;;;;;;;;;;;;9.34;49.88;100635.91;5372597;32;34770;-76
2024/01/25 02:45:28;;;;;;;;;;;;;;;9.08;50.46;100626.19;5377569;32;34633;-69
2024/01/25 02:48:31;;;;;;;;;;;;;;;9.42;49.63;100623.41;5347596;32;34309;-68
2024/01/25 02:51:33;;;;;;;;;;;;;;;9.22;50.34;100628.41;5363204;32;34199;-68
2024/01/25 02:54:38;;;;;;;;;;;;;;;9.61;49.65;100613.22;5370094;32;34882;-69
2024/01/25 02:57:41;;;;;;;;;;;;;;;9.19;50.55;100621.47;5371010;32;35602;-75
2024/01/25 03:00:43;;;;;;;;;;;;;;;9.21;50.55;100635.41;5359168;32;34494;-77
2024/01/25 03:03:46;;;;;;;;;;;;;;;9.31;50.63;100624.66;5349605;32;34454;-78
2024/01/25 03:06:48;;;;;;;;;;;;;;;9.37;50.84;100625.31;5368094;32;34889;-68
2024/01/25 03:09:52;;;;;;;;;;;;;;;9.52;50.83;100612.63;5355120;32;34732;-68
2024/01/25 03:12:54;;;;;;;;;;;;;;;9.19;52.12;100624.09;5360508;32;34927;-69
2024/01/25 03:15:57;;;;;;;;;;;;;;;9.29;52.40;100624.69;5369305;32;34926;-68
2024/01/25 03:18:59;;;;;;;;;;;;;;;9.32;52.49;100627.22;5358714;32;34341;-68
2024/01/25 03:22:02;;;;;;;;;;;;;;;9.34;52.81;100635.03;5370233;32;34191;-75
2024/01/25 03:25:04;;;;;;;;;;;;;;;9.34;52.78;100641.16;5367791;32;35137;-77
2024/01/25 03:28:06;;;;;;;;;;;;;;;9.69;52.36;100639.22;5357742;32;34816;-76
2024/01/25 03:31:09;;;;;;;;;;;;;;;9.39;52.63;100649.72;5365494;32;33388;-69
2024/01/25 03:34:11;;;;;;;;;;;;;;;9.48;52.61;100636.34;5362782;32;35835;-67
2024/01/25 03:37:13;;;;;;;;;;;;;;;9.48;52.71;100659.09;5357889;32;35351;-71
2024/01/25 03:40:16;;;;;;;;;;;;;;;9.02;53.86;100649.12;5357568;32;34833;-76
2024/01/25 03:43:18;;;;;;;;;;;;;;;9.45;52.93;100648.69;5372114;32;35021;-68
2024/01/25 03:46:25;;;;;;;;;;;;;;;9.51;52.79;100643.25;5369444;32;35592;-67
2024/01/25 03:49:27;;;;;;;;;;;;;;;9.37;53.43;100648.06;5358845;32;35535;-76
2024/01/25 03:52:30;;;;;;;;;;;;;;;9.38;53.49;100642.78;5369297;32;35930;-68
2024/01/25 03:55:32;;;;;;;;;;;;;;;9.51;53.49;100643.25;5359128;32;34522;-68
2024/01/25 03:58:35;;;;;;;;;;;;;;;9.44;53.20;100631.22;5355067;32;34263;-76
2024/01/25 04:01:44;;;;;;;;;;;;;;;9.61;52.55;100622.84;5354543;32;35331;-76
2024/01/25 04:04:46;;;;;;;;;;;;;;;9.51;52.43;100643.25;5358240;32;35337;-69
2024/01/25 04:07:49;;;;;;;;;;;;;;;9.42;52.40;100619.94;5355067;32;34276;-76
2024/01/25 04:10:51;;;;;;;;;;;;;;;9.05;53.57;100612.31;5358189;32;35479;-69
2024/01/25 04:13:53;;;;;;;;;;;;;;;9.29;52.43;100616.81;5368569;32;34270;-67
2024/01/25 04:16:55;;;;;;;;;;;;;;;9.21;52.15;100605.72;5359387;32;35188;-76
2024/01/25 04:19:57;;;;;;;;;;;;;;;9.33;51.11;100604.47;5355327;32;34326;-69
2024/01/25 04:23:00;;;;;;;;;;;;;;;9.46;51.21;100603.19;5356027;32;34943;-78
2024/01/25 04:26:02;;;;;;;;;;;;;;;9.11;51.68;100588.53;5348790;32;34995;-76
2024/01/25 04:29:06;;;;;;;;;;;;;;;9.34;51.13;100598.31;5368511;32;35065;-76
2024/01/25 04:32:08;;;;;;;;;;;;;;;9.40;50.90;100604.25;5372381;32;35130;-76
2024/01/25 04:35:10;;;;;;;;;;;;;;;9.39;51.39;100623.50;5369103;32;34351;-76
2024/01/25 04:38:46;;;;;;;;;;;;;;;9.56;51.13;100637.88;5371616;32;34878;-77
2024/01/25 04:42:08;;;;;;;;;;;;;;;9.46;51.68;100635.53;5350881;32;35555;-77
2024/01/25 04:45:10;;;;;;;;;;;;;;;9.21;52.36;100624.94;5348988;32;34992;-68
2024/01/25 04:48:13;;;;;;;;;;;;;;;9.38;52.42;100636.66;5350202;32;34759;-76
2024/01/25 04:51:18;;;;;;;;;;;;;;;9.31;52.65;100643.00;5350635;32;33481;-71
2024/01/25 04:54:20;;;;;;;;;;;;;;;9.43;52.47;100634.78;5342271;32;34440;-76
2024/01/25 04:57:22;;;;;;;;;;;;;;;9.30;53.03;100634.28;5340560;32;34428;-75
2024/01/25 05:00:24;;;;;;;;;;;;;;;9.60;51.94;100647.37;5332115;32;34593;-69
2024/01/25 05:03:27;;;;;;;;;;;;;;;9.17;53.21;100640.78;5336674;32;35459;-75
2024/01/25 05:06:29;;;;;;;;;;;;;;;9.32;52.91;100642.09;5346128;32;34972;-75
2024/01/25 05:09:32;;;;;;;;;;;;;;;9.21;53.16;100652.94;5350708;32;34857;-77
2024/01/25 05:12:34;;;;;;;;;;;;;;;9.16;53.63;100655.66;5345507;32;35484;-68
2024/01/25 05:15:36;;;;;;;;;;;;;;;9.39;52.81;100656.75;5335692;32;34317;-69
2024/01/25 05:18:39;;;;;;;;;;;;;;;9.32;52.98;100663.94;5330055;32;37229;-75
2024/01/25 05:21:41;;;;;;;;;;;;;;;9.30;53.03;100651.78;5347489;32;34908;-75
2024/01/25 05:24:45;;;;;;;;;;;;;;;9.12;53.50;100659.28;5349151;32;35359;-68
2024/01/25 05:27:47;;;;;;;;;;;;;;;9.32;52.88;100655.22;5345615;32;34516;-68
2024/01/25 05:30:50;;;;;;;;;;;;;;;9.61;51.87;100644.72;5338786;32;34083;-67
2024/01/25 05:33:52;;;;;;;;;;;;;;;9.13;52.63;100666.22;5336736;32;35754;-76
2024/01/25 05:36:55;;;;;;;;;;;;;;;9.21;52.70;100669.53;5334674;32;35587;-76
2024/01/25 05:39:57;;;;;;;;;;;;;;;8.92;53.42;100666.84;5349284;32;34427;-67
2024/01/25 05:42:59;;;;;;;;;;;;;;;8.96;53.22;100668.50;5349374;32;35123;-69
2024/01/25 05:46:02;;;;;;;;;;;;;;;8.98;53.65;100678.94;5359534;32;35273;-68
2024/01/25 05:49:06;;;;;;;;;;;;;;;8.85;54.33;100671.41;5368058;32;34230;-69
2024/01/25 05:52:08;;;;;;;;;;;;;;;9.15;53.93;100668.84;5372283;32;34253;-68
2024/01/25 05:55:10;;;;;;;;;;;;;;;9.05;54.77;100655.13;5352914;32;34705;-76
2024/01/25 05:58:13;;;;;;;;;;;;;;;9.48;53.57;100654.72;5367388;32;35374;-74
2024/01/25 06:01:15;;;;;;;;;;;;;;;9.36;53.96;100664.72;5357830;32;34309;-77
2024/01/25 06:04:17;;;;;;;;;;;;;;;9.47;53.93;100660.87;5366879;32;35070;-68
2024/01/25 06:07:20;;;;;;;;;;;;;;;9.26;54.26;100671.97;5371381;32;35381;-77
2024/01/25 06:10:22;;;;;;;;;;;;;;;8.99;55.15;100685.88;5353006;32;34794;-77
2024/01/25 06:13:24;;;;;;;;;;;;;;;9.01;55.05;100671.81;5371545;32;34392;-69
2024/01/25 06:16:26;;;;;;;;;;;;;;;9.44;54.15;100678.47;5367611;32;35675;-68
2024/01/25 06:19:28;;;;;;;;;;;;;;;9.22;54.49;100679.09;5368457;32;34651;-78
2024/01/25 06:22:31;;;;;;;;;;;;;;;9.16;54.68;100713.38;5372335;32;35505;-76
2024/01/25 06:25:35;;;;;;;;;;;;;;;9.22;54.49;100694.84;5351229;32;34565;-69
2024/01/25 06:28:37;;;;;;;;;;;;;;;9.11;54.58;100706.53;5354965;32;35034;-68
2024/01/25 06:31:43;;;;;;;;;;;;;;;9.26;54.21;100684.25;5363343;32;36589;-68
2024/01/25 06:34:45;;;;;;;;;;;;;;;9.54;53.26;100693.03;5372559;32;34373;-67
2024/01/25 06:37:47;;;;;;;;;;;;;;;9.02;54.41;100697.16;5368214;32;35978;-77
2024/01/25 06:40:49;;;;;;;;;;;;;;;9.17;54.19;100701.09;5367691;32;34431;-77
2024/01/25 06:43:52;;;;;;;;;;;;;;;9.07;54.34;100710.12;5353704;32;35416;-70
2024/01/25 06:46:53;;;;;;;;;;;;;;;9.32;53.88;100716.41;5357053;32;35411;-69
2024/01/25 06:49:55;;;;;;;;;;;;;;;9.69;52.85;100710.94;5356278;32;35608;-79
2024/01/25 06:52:58;;;;;;;;;;;;;;;9.46;53.28;100734.34;5370433;32;34284;-73
2024/01/25 06:56:02;;;;;;;;;;;;;;;9.45;52.66;100717.75;5369274;32;34361;-66
2024/01/25 06:59:04;;;;;;;;;;;;;;;9.68;51.94;100730.22;5371128;32;34284;-69
2024/01/25 07:02:06;;;;;;;;;;;;;;;9.55;52.52;100714.87;5366326;32;34912;-68
2024/01/25 07:05:09;;;;;;;;;;;;;;;9.70;51.78;100691.66;5362689;32;34242;-67
2024/01/25 07:08:14;;;;;;;;;;;;;;;10.01;50.96;100688.94;5367825;32;34279;-77
2024/01/25 07:11:17;;;;;;;;;;;;;;;9.63;51.43;100673.53;5374424;32;32909;-77
2024/01/25 07:14:19;;;;;;;;;;;;;;;9.63;51.07;100668.28;5357777;32;34419;-77
2024/01/25 07:17:21;;;;;;;;;;;;;;;9.26;51.63;100652.75;5366963;32;34271;-69
2024/01/25 07:20:22;;;;;;;;;;;;;;;9.50;51.25;100634.53;5372258;32;34728;-73
2024/01/25 07:23:26;;;;;;;;;;;;;;;9.25;51.54;100614.34;5357828;32;34576;-69
2024/01/25 07:26:31;;;;;;;;;;;;;;;9.73;50.54;100622.47;5360490;32;35578;-74
2024/01/25 07:29:33;;;;;;;;;;;;;;;9.42;50.77;100627.81;5341729;32;35098;-73
2024/01/25 07:32:35;;;;;;;;;;;;;;;9.64;50.69;100636.72;5369651;32;34410;-73
2024/01/25 07:35:41;;;;;;;;;;;;;;;9.41;50.62;100642.69;5361591;32;34318;-68
2024/01/25 07:38:46;;;;;;;;;;;;;;;9.71;49.92;100653.13;5355673;32;34274;-78
2024/01/25 07:41:59;;;;;;;;;;;;;;;9.74;49.77;100651.28;5360403;32;35907;-73
2024/01/25 07:45:02;;;;;;;;;;;;;;;9.30;50.21;100659.66;5364860;32;35623;-79
2024/01/25 07:48:04;;;;;;;;;;;;;;;9.64;49.44;100685.72;5369960;32;34837;-74
2024/01/25 07:51:16;;;;;;;;;;;;;;;9.56;49.34;100703.47;5366537;32;35595;-72
2024/01/25 07:54:20;;;;;;;;;;;;;;;9.49;49.64;100702.81;5353996;32;35473;-69
2024/01/25 07:57:22;;;;;;;;;;;;;;;9.99;48.38;100716.16;5353495;32;34786;-72
2024/01/25 08:00:24;;;;;;;;;;;;;;;9.70;48.62;100711.78;5365017;32;33368;-69
2024/01/25 08:03:26;;;;;;;;;;;;;;;9.56;48.81;100708.72;5367193;32;33770;-79
2024/01/25 08:06:28;;;;;;;;;;;;;;;9.63;48.13;100719.00;5365001;32;34710;-80
2024/01/25 08:09:30;;;;;;;;;;;;;;;9.78;47.55;100699.28;5356995;32;34205;-75
2024/01/25 08:12:35;;;;;;;;;;;;;;;9.78;46.46;100700.12;5357922;32;35229;-75
2024/01/25 08:15:38;;;;;;;;;;;;;;;9.78;46.11;100721.13;5352841;32;36002;-75
2024/01/25 08:18:40;;;;;;;;;;;;;;;10.24;45.99;100709.25;5357905;32;35464;-79
2024/01/25 08:21:43;;;;;;;;;;;;;;;9.94;46.72;100715.44;5369116;32;35109;-71
2024/01/25 08:24:45;;;;;;;;;;;;;;;10.28;45.87;100699.47;5370219;32;35719;-77
2024/01/25 08:27:47;;;;;;;;;;;;;;;10.08;46.27;100700.09;5368699;32;34660;-76
2024/01/25 08:30:49;;;;;;;;;;;;;;;10.01;46.65;100709.09;5360065;32;34197;-69
2024/01/25 08:33:51;;;;;;;;;;;;;;;10.18;46.34;100709.41;5369232;32;35637;-78
2024/01/25 08:36:53;;;;;;;;;;;;;;;10.07;46.04;100719.41;5357858;32;34266;-64
2024/01/25 08:39:55;;;;;;;;;;;;;;;10.12;45.96;100701.72;5370941;32;34690;-68
2024/01/25 08:43:00;;;;;;;;;;;;;;;10.19;45.50;100707.66;5354089;32;37497;-81
2024/01/25 08:46:02;;;;;;;;;;;;;;;10.00;45.85;100695.09;5371403;32;35603;-82
2024/01/25 08:49:08;;;;;;;;;;;;;;;10.47;45.70;100700.59;5367978;32;34117;-74
2024/01/25 08:52:10;;;;;;;;;;;;;;;10.51;45.44;100722.38;5371126;32;35202;-81
2024/01/25 08:55:12;;;;;;;;;;;;;;;10.48;46.15;100720.69;5352011;32;34944;-73
2024/01/25 08:58:17;;;;;;;;;;;;;;;10.97;45.40;100720.78;5365824;32;35603;-70
2024/01/25 09:01:19;;;;;;;;;;;;;;;10.77;45.37;100717.09;5367350;32;34831;-69
2024/01/25 09:04:21;;;;;;;;;;;;;;;10.26;46.23;100707.41;5364504;32;35374;-67
2024/01/25 09:07:27;;;;;;;;;;;;;;;10.12;46.71;100738.50;5357174;32;35075;-70
2024/01/25 09:10:29;;;;;;;;;;;;;;;10.81;45.44;100755.50;5355659;32;34434;-72
2024/01/25 09:13:32;;;;;;;;;;;;;;;10.49;46.03;100738.19;5364984;32;36194;-71
2024/01/25 09:16:46;;;;;;;;;;;;;;;10.38;45.96;100753.47;5360964;32;34342;-71
2024/01/25 09:19:52;;;;;;;;;;;;;;;10.85;44.96;100757.12;5360562;32;35118;-69
2024/01/25 09:22:55;;;;;;;;;;;;;;;10.60;45.25;100768.50;5361155;32;34329;-73
2024/01/25 09:25:57;;;;;;;;;;;;;;;10.65;45.21;100771.84;5360730;32;35535;-74
2024/01/25 09:28:59;;;;;;;;;;;;;;;10.76;44.84;100770.59;5357240;32;34101;-71
2024/01/25 09:32:01;;;;;;;;;;;;;;;10.86;44.94;100765.87;5364433;32;34133;-71
2024/01/25 09:35:04;;;;;;;;;;;;;;;10.54;45.49;100759.06;5344274;32;34420;-71
2024/01/25 09:38:07;;;;;;;;;;;;;;;10.51;45.73;100765.28;5364561;32;36530;-70
2024/01/25 09:41:09;;;;;;;;;;;;;;;10.71;45.45;100763.75;5354302;32;34372;-75
2024/01/25 09:44:11;;;;;;;;;;;;;;;11.17;44.56;100772.69;5368658;32;34463;-69
2024/01/25 09:47:13;;;;;;;;;;;;;;;10.72;44.96;100800.50;5349410;32;36204;-70
2024/01/25 09:50:16;;;;;;;;;;;;;;;10.18;46.15;100775.06;5358458;32;34194;-66
2024/01/25 09:53:20;;;;;;;;;;;;;;;10.39;45.75;100776.19;5363892;32;35389;-71
2024/01/25 09:56:23;;;;;;;;;;;;;;;10.30;46.27;100800.09;5367972;32;35970;-71
2024/01/25 09:59:25;;;;;;;;;;;;;;;10.76;45.42;100782.87;5362192;32;34231;-70
2024/01/25 10:02:29;;;;;;;;;;;;;;;10.55;45.31;100808.09;5341597;32;34262;-72
2024/01/25 10:05:31;;;;;;;;;;;;;;;10.36;45.88;100788.56;5356944;32;34259;-71
2024/01/25 10:08:36;;;;;;;;;;;;;;;10.32;45.79;100795.69;5364921;32;34910;-73
2024/01/25 10:11:38;;;;;;;;;;;;;;;10.41;45.33;100789.28;5374809;32;33689;-72
2024/01/25 10:14:49;;;;;;;;;;;;;;;10.14;46.04;100788.34;5359453;32;34350;-75
2024/01/25 10:17:51;;;;;;;;;;;;;;;10.96;44.53;100787.47;5355117;32;34493;-73
2024/01/25 10:21:13;;;;;;;;;;;;;;;10.92;44.25;100770.06;5364372;32;34512;-77
2024/01/25 10:24:17;;;;;;;;;;;;;;;10.69;45.02;100763.81;5345814;32;35493;-71
2024/01/25 10:27:19;;;;;;;;;;;;;;;10.28;45.92;100780.91;5369159;32;34200;-77
2024/01/25 10:30:21;;;;;;;;;;;;;;;10.61;45.22;100799.13;5358090;32;34861;-69
2024/01/25 10:33:25;;;;;;;;;;;;;;;10.74;45.54;100771.53;5368995;32;35602;-74
2024/01/25 10:36:30;;;;;;;;;;;;;;;12.32;41.43;100770.09;5368868;32;34255;-74
2024/01/25 10:39:34;;;;;;;;;;;;;;;12.85;40.02;100743.28;5358340;32;34392;-72
2024/01/25 10:42:37;;;;;;;;;;;;;;;12.63;39.96;100745.13;5353690;32;34769;-78
2024/01/25 10:45:39;;;;;;;;;;;;;;;12.48;40.01;100750.09;5351174;32;34314;-74
2024/01/25 10:48:41;;;;;;;;;;;;;;;12.62;39.83;100739.00;5348549;32;35461;-77
2024/01/25 10:51:43;;;;;;;;;;;;;;;12.14;40.75;100776.09;5355135;32;34250;-72
2024/01/25 10:54:45;;;;;;;;;;;;;;;11.95;41.54;100770.69;5357260;32;34551;-77
2024/01/25 10:57:48;;;;;;;;;;;;;;;11.70;42.03;100767.25;5374433;32;34333;-71
2024/01/25 11:00:58;;;;;;;;;;;;;;;12.35;41.25;100775.25;5372115;32;35065;-72
2024/01/25 11:04:00;;;;;;;;;;;;;;;13.68;38.17;100742.28;5372655;32;34228;-71
2024/01/25 11:07:06;;;;;;;;;;;;;;;12.83;39.46;100755.69;5357307;32;34251;-75
2024/01/25 11:10:12;;;;;;;;;;;;;;;12.56;39.98;100768.25;5346486;32;36547;-76
2024/01/25 11:13:15;;;;;;;;;;;;;;;13.53;38.05;100752.63;5363544;32;35150;-76
2024/01/25 11:16:27;;;;;;;;;;;;;;;13.82;37.64;100771.56;5374422;32;34579;-80
2024/01/25 11:19:30;;;;;;;;;;;;;;;13.14;38.73;100770.22;5360617;32;35071;-78
2024/01/25 11:22:35;;;;;;;;;;;;;;;12.39;39.36;100755.75;5361999;32;34583;-81
2024/01/25 11:25:38;;;;;;;;;;;;;;;11.62;40.43;100757.00;5360699;32;34254;-73
2024/01/25 11:28:40;;;;;;;;;;;;;;;12.07;39.79;100764.94;5369418;32;37199;-73
2024/01/25 11:31:43;;;;;;;;;;;;;;;11.62;40.63;100757.00;5373872;32;34263;-70
2024/01/25 11:34:46;;;;;;;;;;;;;;;12.50;39.64;100747.41;5353027;32;35291;-75
2024/01/25 11:37:49;;;;;;;;;;;;;;;12.69;38.80;100748.38;5368429;32;34671;-75
2024/01/25 11:40:51;;;;;;;;;;;;;;;11.93;40.36;100754.09;5360346;32;33004;-71
2024/01/25 11:43:53;;;;;;;;;;;;;;;13.44;36.92;100741.59;5368113;32;34272;-68
2024/01/25 11:46:56;;;;;;;;;;;;;;;13.34;36.64;100735.91;5371779;32;34464;-73
2024/01/25 11:49:58;;;;;;;;;;;;;;;13.96;36.30;100740.03;5357081;32;34244;-73
2024/01/25 11:53:00;;;;;;;;;;;;;;;12.60;38.41;100722.38;5361874;32;35858;-77
2024/01/25 11:56:06;;;;;;;;;;;;;;;12.53;39.38;100752.56;5374838;32;34273;-69
2024/01/25 11:59:08;;;;;;;;;;;;;;;12.64;39.21;100736.28;5360095;32;34252;-68
2024/01/25 12:02:11;;;;;;;;;;;;;;;13.32;37.96;100728.97;5361570;32;34917;-71
2024/01/25 12:05:13;;;;;;;;;;;;;;;13.20;37.59;100748.81;5373546;32;34916;-76
2024/01/25 12:08:16;;;;;;;;;;;;;;;12.88;37.82;100734.38;5357866;32;37644;-71
2024/01/25 12:11:21;;;;;;;;;;;;;;;13.39;37.16;100754.16;5360135;32;34034;-69
2024/01/25 12:14:27;;;;;;;;;;;;;;;11.90;38.64;100748.94;5351676;32;35250;-70
2024/01/25 12:17:30;;;;;;;;;;;;;;;12.09;38.42;100763.09;5376520;32;34284;-73
2024/01/25 12:20:35;;;;;;;;;;;;;;;13.06;37.17;100753.84;5367169;32;34634;-71
2024/01/25 12:23:38;;;;;;;;;;;;;;;12.77;37.19;100776.19;5375816;32;36082;-77
2024/01/25 12:26:43;;;;;;;;;;;;;;;12.57;37.73;100774.38;5370525;32;35746;-73
2024/01/25 12:29:45;;;;;;;;;;;;;;;12.69;37.01;100780.03;5355651;32;35882;-72
2024/01/25 12:32:48;;;;;;;;;;;;;;;13.33;36.33;100763.22;5346283;32;33989;-68
2024/01/25 12:35:51;;;;;;;;;;;;;;;12.60;37.44;100750.53;5369986;32;34111;-70
2024/01/25 12:38:53;;;;;;;;;;;;;;;12.45;37.49;100752.88;5373053;32;34285;-68
2024/01/25 12:41:55;;;;;;;;;;;;;;;11.99;38.37;100761.75;5364515;32;37728;-74
2024/01/25 12:44:57;;;;;;;;;;;;;;;11.68;38.77;100758.56;5369873;32;34276;-69
2024/01/25 12:47:59;;;;;;;;;;;;;;;11.04;39.99;100745.97;5370357;32;34370;-71
2024/01/25 12:51:02;;;;;;;;;;;;;;;11.51;39.29;100733.69;5373094;32;34157;-80
2024/01/25 12:54:04;;;;;;;;;;;;;;;12.65;36.86;100720.41;5364434;32;35598;-75
2024/01/25 12:57:07;;;;;;;;;;;;;;;12.63;37.22;100697.66;5357661;32;33864;-77
2024/01/25 13:00:09;;;;;;;;;;;;;;;13.88;34.65;100712.28;5374242;32;32989;-75
2024/01/25 13:03:12;;;;;;;;;;;;;;;13.62;34.95;100708.22;5369832;32;34305;-69
2024/01/25 13:06:15;;;;;;;;;;;;;;;12.00;37.57;100689.72;5355101;32;35649;-69
2024/01/25 13:09:18;;;;;;;;;;;;;;;12.57;37.02;100695.28;5368299;32;35393;-71
2024/01/25 13:12:20;;;;;;;;;;;;;;;12.11;37.72;100729.66;5374162;32;35451;-68
2024/01/25 13:15:22;;;;;;;;;;;;;;;13.07;36.96;100731.78;5356874;32;34777;-72
2024/01/25 13:18:25;;;;;;;;;;;;;;;13.09;36.65;100693.03;5360319;32;35804;-74
2024/01/25 13:21:27;;;;;;;;;;;;;;;14.01;35.46;100694.91;5355670;32;34241;-72
2024/01/25 13:24:29;;;;;;;;;;;;;;;15.02;34.16;100700.44;5372364;32;34439;-73
2024/01/25 13:27:31;;;;;;;;;;;;;;;14.25;34.45;100706.94;5372117;32;34864;-72
2024/01/25 13:30:33;;;;;;;;;;;;;;;13.22;36.88;100703.00;5366818;32;36330;-73
2024/01/25 13:33:35;;;;;;;;;;;;;;;13.92;36.13;100727.06;5366670;32;34206;-72
2024/01/25 13:36:38;;;;;;;;;;;;;;;12.69;37.07;100723.78;5373108;32;34891;-67
2024/01/25 13:39:40;;;;;;;;;;;;;;;13.11;36.50;100712.28;5369579;32;34323;-76
2024/01/25 13:42:46;;;;;;;;;;;;;;;13.24;36.82;100737.22;5372359;32;36153;-69
2024/01/25 13:45:48;;;;;;;;;;;;;;;13.69;35.62;100729.00;5350315;32;34799;-72
2024/01/25 13:48:50;;;;;;;;;;;;;;;14.18;34.69;100747.81;5369316;32;35277;-70
2024/01/25 13:51:54;;;;;;;;;;;;;;;12.82;37.61;100756.63;5352585;32;34897;-71
2024/01/25 13:54:56;;;;;;;;;;;;;;;13.90;35.89;100742.13;5357516;32;35533;-75
2024/01/25 13:58:01;;;;;;;;;;;;;;;13.65;36.45;100739.75;5359548;32;35545;-75
2024/01/25 14:01:06;;;;;;;;;;;;;;;13.38;36.74;100770.94;5371903;32;36828;-70
2024/01/25 14:04:08;;;;;;;;;;;;;;;11.27;40.05;100761.81;5372940;32;34250;-68
2024/01/25 14:07:10;;;;;;;;;;;;;;;11.29;40.57;100778.38;5368763;32;36968;-75
2024/01/25 14:10:13;;;;;;;;;;;;;;;11.16;41.48;100789.41;5369920;32;34332;-66
2024/01/25 14:13:15;;;;;;;;;;;;;;;11.07;41.22;100767.75;5354221;32;35094;-72
2024/01/25 14:16:17;;;;;;;;;;;;;;;11.08;41.42;100779.16;5343179;32;34382;-70
2024/01/25 14:19:21;;;;;;;;;;;;;;;11.42;40.57;100780.56;5371336;32;34273;-71
2024/01/25 14:22:24;;;;;;;;;;;;;;;11.69;40.33;100799.75;5366151;32;34274;-73
2024/01/25 14:25:34;;;;;;;;;;;;;;;11.17;41.10;100797.22;5355594;32;34890;-74
2024/01/25 14:28:37;;;;;;;;;;;;;;;11.48;40.86;100804.03;5362505;32;34188;-73
2024/01/25 14:31:41;;;;;;;;;;;;;;;11.59;40.96;100810.66;5364069;32;35385;-74
2024/01/25 14:34:43;;;;;;;;;;;;;;;10.80;42.27;100803.75;5370631;32;34252;-68
2024/01/25 14:37:45;;;;;;;;;;;;;;;10.47;43.21;100825.88;5356033;32;34111;-75
2024/01/25 14:40:47;;;;;;;;;;;;;;;10.43;43.44;100817.25;5351421;32;34198;-75
2024/01/25 14:44:00;;;;;;;;;;;;;;;10.31;43.51;100820.25;5369470;32;34202;-69
2024/01/25 14:47:03;;;;;;;;;;;;;;;10.62;43.05;100835.88;5359862;32;34284;-71
2024/01/25 14:50:05;;;;;;;;;;;;;;;10.37;43.44;100840.19;5344910;32;34351;-70
2024/01/25 14:53:08;;;;;;;;;;;;;;;10.94;42.51;100844.50;5360726;32;35375;-67
2024/01/25 14:56:12;;;;;;;;;;;;;;;10.56;43.65;100858.00;5368851;32;32506;-72
2024/01/25 14:59:14;;;;;;;;;;;;;;;10.37;44.23;100855.97;5368523;32;34087;-69
2024/01/25 15:02:18;;;;;;;;;;;;;;;9.99;44.70;100871.09;5361912;32;34332;-78
2024/01/25 15:05:20;;;;;;;;;;;;;;;9.99;44.64;100869.31;5360154;32;34232;-73
2024/01/25 15:08:22;;;;;;;;;;;;;;;9.58;45.48;100869.59;5365719;32;34387;-71
2024/01/25 15:11:24;;;;;;;;;;;;;;;9.85;45.15;100868.81;5352975;32;33768;-72
2024/01/25 15:14:28;;;;;;;;;;;;;;;9.75;45.08;100864.75;5369742;32;34283;-75
2024/01/25 15:17:30;;;;;;;;;;;;;;;9.54;45.61;100879.34;5360035;32;35247;-67
2024/01/25 15:20:35;;;;;;;;;;;;;;;9.77;45.45;100865.56;5366890;32;34410;-74
2024/01/25 15:23:37;;;;;;;;;;;;;;;9.93;44.92;100868.63;5370736;32;34160;-73
2024/01/25 15:26:40;;;;;;;;;;;;;;;10.22;44.41;100871.25;5367949;32;34213;-70
2024/01/25 15:29:42;;;;;;;;;;;;;;;9.87;44.92;100876.69;5353285;32;34509;-72
2024/01/25 15:32:46;;;;;;;;;;;;;;;9.62;45.40;100881.75;5355920;32;35585;-68
2024/01/25 15:35:49;;;;;;;;;;;;;;;9.36;46.07;100883.31;5373898;32;34235;-69
2024/01/25 15:38:51;;;;;;;;;;;;;;;9.62;45.77;100874.75;5373113;32;34661;-69
2024/01/25 15:41:53;;;;;;;;;;;;;;;9.96;45.09;100861.50;5370382;32;34744;-75
2024/01/25 15:44:55;;;;;;;;;;;;;;;10.02;44.99;100855.22;5377409;32;34911;-70
2024/01/25 15:47:57;;;;;;;;;;;;;;;9.52;46.04;100869.78;5368199;32;35436;-70